createdAt,value
2023-03-04T00:01:22.058Z,1.83
2023-03-04T00:03:48.787Z,2.05
2023-03-04T00:06:15.896Z,1.67
2023-03-04T00:08:42.862Z,1.55
2023-03-04T00:11:09.672Z,1.30
2023-03-04T00:13:36.488Z,1.35
2023-03-04T00:16:04.282Z,1.55
2023-03-04T00:18:31.086Z,1.98
2023-03-04T00:20:58.021Z,1.80
2023-03-04T00:23:24.784Z,1.33
2023-03-04T00:25:51.560Z,1.02
2023-03-04T00:28:19.484Z,1.13
2023-03-04T00:30:46.170Z,1.23
2023-03-04T00:33:12.889Z,0.68
2023-03-04T00:35:41.112Z,1.25
2023-03-04T00:38:09.280Z,1.60
2023-03-04T00:40:35.979Z,1.20
2023-03-04T00:43:03.660Z,1.17
2023-03-04T00:45:30.454Z,1.15
2023-03-04T00:47:57.258Z,1.48
2023-03-04T00:50:23.977Z,1.42
2023-03-04T00:52:51.081Z,0.82
2023-03-04T00:55:17.886Z,1.02
2023-03-04T00:57:44.783Z,0.95
2023-03-04T01:00:12.326Z,1.17
2023-03-04T01:02:39.186Z,1.30
2023-03-04T01:05:06.978Z,1.15
2023-03-04T01:07:34.170Z,0.90
2023-03-04T01:10:00.957Z,1.55
2023-03-04T01:12:28.255Z,1.17
2023-03-04T01:14:55.049Z,1.52
2023-03-04T01:17:21.859Z,1.15
2023-03-04T01:19:48.890Z,1.13
2023-03-04T01:22:16.743Z,0.57
2023-03-04T01:24:43.554Z,0.57
2023-03-04T01:27:10.416Z,0.80
2023-03-04T01:29:37.315Z,0.70
2023-03-04T01:32:05.543Z,0.93
2023-03-04T01:34:32.433Z,1.02
2023-03-04T01:36:59.276Z,0.90
2023-03-04T01:39:26.257Z,1.42
2023-03-04T01:41:53.053Z,0.80
2023-03-04T01:44:19.923Z,0.95
2023-03-04T01:46:51.550Z,1.17
2023-03-04T01:49:18.722Z,0.70
2023-03-04T01:51:49.815Z,1.17
2023-03-04T01:54:17.289Z,0.70
2023-03-04T01:56:46.318Z,1.17
2023-03-04T01:59:26.646Z,0.93
2023-03-04T02:01:59.637Z,0.90
2023-03-04T02:04:30.005Z,1.10
2023-03-04T02:06:58.159Z,0.82
2023-03-04T02:09:25.131Z,0.73
2023-03-04T02:11:52.899Z,1.00
2023-03-04T02:14:20.312Z,0.85
2023-03-04T02:16:48.989Z,0.90
2023-03-04T02:19:50.961Z,0.68
2023-03-04T02:22:17.828Z,0.93
2023-03-04T02:24:56.412Z,0.82
2023-03-04T02:27:23.237Z,0.85
2023-03-04T02:29:50.023Z,0.93
2023-03-04T02:32:16.918Z,1.08
2023-03-04T02:34:49.972Z,1.50
2023-03-04T02:37:18.891Z,1.02
2023-03-04T02:39:48.763Z,0.90
2023-03-04T02:42:16.938Z,0.63
2023-03-04T02:44:48.219Z,0.73
2023-03-04T02:47:20.499Z,0.70
2023-03-04T02:49:47.489Z,0.82
2023-03-04T02:52:25.736Z,0.75
2023-03-04T02:57:19.027Z,0.80
2023-03-04T02:59:45.699Z,0.80
2023-03-04T03:02:12.496Z,1.30
2023-03-04T03:04:40.888Z,0.85
2023-03-04T03:07:08.248Z,0.95
2023-03-04T03:09:35.120Z,0.60
2023-03-04T03:12:01.858Z,0.90
2023-03-04T03:14:28.524Z,0.70
2023-03-04T03:16:55.288Z,0.98
2023-03-04T03:19:21.997Z,1.23
2023-03-04T03:21:50.041Z,1.10
2023-03-04T03:24:16.765Z,1.13
2023-03-04T03:26:43.465Z,1.00
2023-03-04T03:29:10.200Z,1.42
2023-03-04T03:31:36.920Z,0.95
2023-03-04T03:34:03.634Z,0.65
2023-03-04T03:36:30.369Z,0.80
2023-03-04T03:38:57.087Z,1.15
2023-03-04T03:41:23.812Z,0.85
2023-03-04T03:43:50.503Z,0.70
2023-03-04T03:46:17.212Z,0.75
2023-03-04T03:48:43.901Z,0.80
2023-03-04T03:51:10.802Z,1.38
2023-03-04T03:53:37.525Z,1.20
2023-03-04T03:56:04.598Z,0.90
2023-03-04T03:58:31.269Z,0.60
2023-03-04T04:00:58.571Z,0.90
2023-03-04T04:03:25.662Z,1.13
2023-03-04T04:05:53.367Z,0.95
2023-03-04T04:08:20.119Z,1.27
2023-03-04T04:10:46.870Z,0.65
2023-03-04T04:13:13.612Z,0.70
2023-03-04T04:15:40.564Z,1.40
2023-03-04T04:18:07.501Z,0.65
2023-03-04T04:20:35.099Z,0.98
2023-03-04T04:23:03.338Z,0.85
2023-03-04T04:25:32.124Z,0.68
2023-03-04T04:27:59.468Z,0.65
2023-03-04T04:30:26.585Z,1.23
2023-03-04T04:32:53.386Z,1.13
2023-03-04T04:35:20.558Z,0.73
2023-03-04T04:37:47.526Z,0.98
2023-03-04T04:40:14.459Z,1.00
2023-03-04T04:42:41.252Z,0.70
2023-03-04T04:45:08.597Z,0.70
2023-03-04T04:47:35.248Z,0.90
2023-03-04T04:50:02.160Z,0.80
2023-03-04T04:52:29.005Z,1.33
2023-03-04T04:54:55.678Z,0.82
2023-03-04T04:57:22.546Z,1.10
2023-03-04T04:59:49.342Z,1.00
2023-03-04T05:02:16.444Z,0.88
2023-03-04T05:04:43.196Z,1.45
2023-03-04T05:07:09.945Z,0.95
2023-03-04T05:09:36.670Z,0.77
2023-03-04T05:12:03.536Z,1.17
2023-03-04T05:14:30.218Z,1.00
2023-03-04T05:16:56.994Z,1.02
2023-03-04T05:19:23.734Z,1.40
2023-03-04T05:21:50.467Z,1.20
2023-03-04T05:24:17.564Z,1.52
2023-03-04T05:26:44.408Z,1.00
2023-03-04T05:29:11.190Z,1.60
2023-03-04T05:31:37.972Z,1.13
2023-03-04T05:34:05.008Z,1.48
2023-03-04T05:36:31.820Z,1.70
2023-03-04T05:38:58.553Z,2.40
2023-03-04T05:41:25.847Z,2.78
2023-03-04T05:43:52.592Z,1.50
2023-03-04T05:46:25.395Z,1.42
2023-03-04T05:48:53.738Z,2.22
2023-03-04T05:51:20.943Z,1.50
2023-03-04T05:53:47.878Z,1.70
2023-03-04T05:56:17.037Z,1.38
2023-03-04T05:58:44.569Z,1.63
2023-03-04T06:01:11.413Z,1.83
2023-03-04T06:03:38.360Z,2.10
2023-03-04T06:06:05.883Z,2.00
2023-03-04T06:08:32.739Z,1.63
2023-03-04T06:10:59.520Z,1.58
2023-03-04T06:13:26.927Z,1.95
2023-03-04T06:15:55.751Z,1.58
2023-03-04T06:18:23.530Z,2.67
2023-03-04T06:20:50.305Z,1.73
2023-03-04T06:23:17.351Z,2.58
2023-03-04T06:25:44.253Z,2.00
2023-03-04T06:28:10.973Z,1.80
2023-03-04T06:30:38.054Z,2.10
2023-03-04T06:33:04.731Z,2.20
2023-03-04T06:35:31.649Z,1.90
2023-03-04T06:37:58.367Z,2.38
2023-03-04T06:40:25.058Z,2.05
2023-03-04T06:42:51.801Z,2.30
2023-03-04T06:45:18.665Z,1.67
2023-03-04T06:47:45.434Z,1.48
2023-03-04T06:50:13.444Z,1.80
2023-03-04T06:52:40.835Z,1.70
2023-03-04T06:55:08.529Z,1.95
2023-03-04T06:57:35.537Z,1.33
2023-03-04T07:00:03.502Z,2.25
2023-03-04T07:02:30.236Z,1.88
2023-03-04T07:04:56.979Z,1.67
2023-03-04T07:07:25.577Z,2.30
2023-03-04T07:09:52.316Z,1.80
2023-03-04T07:12:19.132Z,2.58
2023-03-04T07:14:46.007Z,2.08
2023-03-04T07:17:12.831Z,1.85
2023-03-04T07:19:39.594Z,1.70
2023-03-04T07:22:06.429Z,1.63
2023-03-04T07:24:33.552Z,2.10
2023-03-04T07:27:00.265Z,1.40
2023-03-04T07:29:27.250Z,1.95
2023-03-04T07:31:54.091Z,2.05
2023-03-04T07:34:21.179Z,1.35
2023-03-04T07:36:48.169Z,1.52
2023-03-04T07:39:14.937Z,1.27
2023-03-04T07:41:41.880Z,2.00
2023-03-04T07:44:13.097Z,1.40
2023-03-04T07:46:40.258Z,1.50
2023-03-04T07:49:07.089Z,1.75
2023-03-04T07:51:35.121Z,1.65
2023-03-04T07:54:02.133Z,1.58
2023-03-04T07:56:32.554Z,1.75
2023-03-04T07:59:00.583Z,1.10
2023-03-04T08:01:33.320Z,1.45
2023-03-04T08:04:01.059Z,2.10
2023-03-04T08:06:29.099Z,1.67
2023-03-04T08:08:58.954Z,2.03
2023-03-04T08:11:26.955Z,1.30
2023-03-04T08:13:54.278Z,2.03
2023-03-04T08:16:23.519Z,1.70
2023-03-04T08:18:53.069Z,1.92
2023-03-04T08:21:21.834Z,1.98
2023-03-04T08:23:49.757Z,1.23
2023-03-04T08:26:20.417Z,1.90
2023-03-04T08:28:47.961Z,1.50
2023-03-04T08:31:16.899Z,2.35
2023-03-04T08:33:44.297Z,1.42
2023-03-04T08:36:11.322Z,2.13
2023-03-04T08:38:38.452Z,1.67
2023-03-04T08:41:05.759Z,1.60
2023-03-04T08:43:33.908Z,1.98
2023-03-04T08:46:00.836Z,1.90
2023-03-04T08:48:28.206Z,2.63
2023-03-04T08:50:55.051Z,1.67
2023-03-04T08:53:22.021Z,2.33
2023-03-04T08:55:49.060Z,2.03
2023-03-04T08:58:15.949Z,2.42
2023-03-04T09:00:48.537Z,1.98
2023-03-04T09:03:16.479Z,1.90
2023-03-04T09:05:45.470Z,2.13
2023-03-04T09:08:13.055Z,2.47
2023-03-04T09:10:40.021Z,1.77
2023-03-04T09:13:07.079Z,1.77
2023-03-04T09:15:37.763Z,2.78
2023-03-04T09:18:05.509Z,2.70
2023-03-04T09:20:32.879Z,1.63
2023-03-04T09:22:59.715Z,2.50
2023-03-04T09:25:26.525Z,2.20
2023-03-04T09:27:53.790Z,1.88
2023-03-04T09:30:20.810Z,2.13
2023-03-04T09:32:47.891Z,2.15
2023-03-04T09:35:14.597Z,2.63
2023-03-04T09:37:41.802Z,1.65
2023-03-04T09:40:14.460Z,1.67
2023-03-04T09:42:47.600Z,1.77
2023-03-04T09:45:20.251Z,1.80
2023-03-04T09:47:49.251Z,2.13
2023-03-04T09:50:18.101Z,2.90
2023-03-04T09:52:50.927Z,2.42
2023-03-04T09:55:35.692Z,2.33
2023-03-04T09:58:22.543Z,2.35
2023-03-04T10:00:58.109Z,2.25
2023-03-04T10:03:48.367Z,1.90
2023-03-04T10:06:18.357Z,1.80
2023-03-04T10:09:00.226Z,2.25
2023-03-04T10:11:42.700Z,2.08
2023-03-04T10:14:21.826Z,2.08
2023-03-04T10:17:07.066Z,2.60
2023-03-04T10:20:01.529Z,1.55
2023-03-04T10:22:48.749Z,2.63
2023-03-04T10:25:21.856Z,2.25
2023-03-04T10:27:55.631Z,2.50
2023-03-04T10:30:48.281Z,1.85
2023-03-04T10:33:21.193Z,2.53
2023-03-04T10:35:58.624Z,2.42
2023-03-04T10:38:25.684Z,2.10
2023-03-04T10:40:52.452Z,2.88
2023-03-04T10:43:20.993Z,2.50
2023-03-04T10:45:49.228Z,2.03
2023-03-04T10:48:28.234Z,2.15
2023-03-04T10:51:10.457Z,2.00
2023-03-04T10:53:41.057Z,1.73
2023-03-04T10:56:31.886Z,1.77
2023-03-04T10:59:36.616Z,1.80
2023-03-04T11:02:27.233Z,1.77
2023-03-04T11:05:10.537Z,2.13
2023-03-04T11:07:55.717Z,2.50
2023-03-04T11:10:43.038Z,2.10
2023-03-04T11:13:12.582Z,2.35
2023-03-04T11:15:51.512Z,2.60
2023-03-04T11:18:34.216Z,2.25
2023-03-04T11:21:01.337Z,2.40
2023-03-04T11:23:31.130Z,2.22
2023-03-04T11:26:16.299Z,2.30
2023-03-04T11:28:54.688Z,2.13
2023-03-04T11:31:40.547Z,1.85
2023-03-04T11:34:34.056Z,2.15
2023-03-04T11:37:10.331Z,2.03
2023-03-04T11:39:41.760Z,1.88
2023-03-04T11:42:23.130Z,2.28
2023-03-04T11:44:50.534Z,2.05
2023-03-04T11:47:17.377Z,2.03
2023-03-04T11:50:19.201Z,1.73
2023-03-04T11:53:03.330Z,1.80
2023-03-04T11:55:56.302Z,1.98
2023-03-04T11:59:00.592Z,2.25
2023-03-04T12:01:36.335Z,2.33
2023-03-04T12:04:12.493Z,2.08
2023-03-04T12:07:03.529Z,1.63
2023-03-04T12:09:42.363Z,1.60
2023-03-04T12:12:42.677Z,2.33
2023-03-04T12:15:31.353Z,2.95
2023-03-04T12:18:22.589Z,2.13
2023-03-04T12:21:27.602Z,1.95
2023-03-04T12:24:19.067Z,1.52
2023-03-04T12:27:06.402Z,2.25
2023-03-04T12:29:36.022Z,1.45
2023-03-04T12:32:17.565Z,1.55
2023-03-04T12:35:22.267Z,1.33
2023-03-04T12:38:04.161Z,1.48
2023-03-04T12:40:53.375Z,1.60
2023-03-04T12:43:47.730Z,1.25
2023-03-04T12:46:42.837Z,1.10
2023-03-04T12:49:18.362Z,0.68
2023-03-04T12:51:56.458Z,1.05
2023-03-04T12:57:21.484Z,1.05
2023-03-04T13:00:10.343Z,1.05
2023-03-04T13:02:52.623Z,0.75
2023-03-04T13:05:51.151Z,1.67
2023-03-04T13:08:36.154Z,0.90
2023-03-04T13:11:33.847Z,1.00
2023-03-04T13:14:17.674Z,0.60
2023-03-04T13:16:49.536Z,0.80
2023-03-04T13:22:01.814Z,0.40
2023-03-04T13:24:52.334Z,0.22
2023-03-04T13:27:46.169Z,0.15
2023-03-04T13:30:31.349Z,0.30
2023-03-04T13:33:16.318Z,0.22
2023-03-04T13:35:49.023Z,0.25
2023-03-04T13:38:28.486Z,0.43
2023-03-04T13:41:23.041Z,0.20
2023-03-04T13:43:49.731Z,0.20
2023-03-04T13:46:19.528Z,0.30
2023-03-04T13:48:52.377Z,0.20
2023-03-04T13:51:29.414Z,0.20
2023-03-04T13:54:00.098Z,0.60
2023-03-04T13:56:37.074Z,0.40
2023-03-04T13:59:13.361Z,0.40
2023-03-04T14:01:43.120Z,0.30
2023-03-04T14:04:23.464Z,0.30
2023-03-04T14:06:51.959Z,0.50
2023-03-04T14:09:34.298Z,0.20
2023-03-04T14:12:04.278Z,0.30
2023-03-04T14:15:02.378Z,0.35
2023-03-04T14:17:33.671Z,0.30
2023-03-04T14:20:01.002Z,0.30
2023-03-04T14:22:53.949Z,0.98
2023-03-04T14:25:25.239Z,0.40
2023-03-04T14:28:04.727Z,0.20
2023-03-04T14:30:42.242Z,0.30
2023-03-04T14:33:15.855Z,0.38
2023-03-04T14:35:48.285Z,1.05
2023-03-04T14:38:35.562Z,0.35
2023-03-04T14:41:10.835Z,0.30
2023-03-04T14:44:04.632Z,0.40
2023-03-04T14:46:40.190Z,0.32
2023-03-04T14:49:10.997Z,0.20
2023-03-04T14:51:41.568Z,0.30
2023-03-04T14:54:29.998Z,0.77
2023-03-04T14:56:58.736Z,0.20
2023-03-04T14:59:34.152Z,0.47
2023-03-04T15:02:30.200Z,0.50
2023-03-04T15:05:16.405Z,0.32
2023-03-04T15:07:49.592Z,0.57
2023-03-04T15:10:22.344Z,0.30
2023-03-04T15:13:00.000Z,0.40
2023-03-04T15:15:42.008Z,0.40
2023-03-04T15:18:16.849Z,0.40
2023-03-04T15:20:53.269Z,0.30
2023-03-04T15:23:19.958Z,0.30
2023-03-04T15:25:46.704Z,0.40
2023-03-04T15:28:18.747Z,0.40
2023-03-04T15:30:46.019Z,0.22
2023-03-04T15:33:13.412Z,0.30
2023-03-04T15:35:42.698Z,0.30
2023-03-04T15:38:12.713Z,0.45
2023-03-04T15:40:43.012Z,0.47
2023-03-04T15:43:15.052Z,0.30
2023-03-04T15:45:41.959Z,0.30
2023-03-04T15:48:12.304Z,0.22
2023-03-04T15:50:45.546Z,0.20
2023-03-04T15:53:22.275Z,0.10
2023-03-04T15:55:49.134Z,0.68
2023-03-04T15:58:16.141Z,0.30
2023-03-04T16:00:43.101Z,0.40
2023-03-04T16:03:18.490Z,0.70
2023-03-04T16:05:47.983Z,0.20
2023-03-04T16:08:17.350Z,0.32
2023-03-04T16:10:44.432Z,0.20
2023-03-04T16:13:16.423Z,0.20
2023-03-04T16:18:14.856Z,0.10
2023-03-04T16:20:45.762Z,0.30
2023-03-04T16:23:22.138Z,0.22
2023-03-04T16:25:51.384Z,0.10
2023-03-04T16:28:18.180Z,0.10
2023-03-04T16:30:45.076Z,0.25
2023-03-04T16:33:11.847Z,0.28
2023-03-04T16:35:39.891Z,0.22
2023-03-04T16:38:34.461Z,0.30
2023-03-04T16:41:04.563Z,0.10
2023-03-04T16:43:31.352Z,0.20
2023-03-04T16:45:58.221Z,0.20
2023-03-04T16:48:25.305Z,0.25
2023-03-04T16:50:52.455Z,0.45
2023-03-04T16:53:28.861Z,0.20
2023-03-04T16:55:57.718Z,0.55
2023-03-04T16:58:24.396Z,0.40
2023-03-04T17:00:51.116Z,0.40
2023-03-04T17:03:18.119Z,0.35
2023-03-04T17:05:44.768Z,0.40
2023-03-04T17:08:11.516Z,0.30
2023-03-04T17:10:38.254Z,0.30
2023-03-04T17:13:06.338Z,0.50
2023-03-04T17:15:33.010Z,0.20
2023-03-04T17:17:59.674Z,0.38
2023-03-04T17:20:26.479Z,0.47
2023-03-04T17:22:53.656Z,1.25
2023-03-04T17:25:20.348Z,0.30
2023-03-04T17:27:47.106Z,0.22
2023-03-04T17:30:14.315Z,0.50
2023-03-04T17:32:41.436Z,0.40
2023-03-04T17:35:09.161Z,0.43
2023-03-04T17:37:36.643Z,0.38
2023-03-04T17:40:08.730Z,0.40
2023-03-04T17:42:35.540Z,0.52
2023-03-04T17:45:02.219Z,1.05
2023-03-04T17:47:29.034Z,0.40
2023-03-04T17:49:55.747Z,1.00
2023-03-04T17:52:22.412Z,0.40
2023-03-04T17:54:49.098Z,0.70
2023-03-04T17:57:16.232Z,0.80
2023-03-04T17:59:42.993Z,1.55
2023-03-04T18:02:14.744Z,1.40
2023-03-04T18:04:42.610Z,1.15
2023-03-04T18:07:09.571Z,0.63
2023-03-04T18:09:36.524Z,0.60
2023-03-04T18:12:03.464Z,0.57
2023-03-04T18:14:30.168Z,0.68
2023-03-04T18:16:57.205Z,1.02
2023-03-04T18:19:23.876Z,1.20
2023-03-04T18:21:50.806Z,1.00
2023-03-04T18:24:18.003Z,1.73
2023-03-04T18:26:45.219Z,1.73
2023-03-04T18:29:11.940Z,2.13
2023-03-04T18:31:38.894Z,3.60
2023-03-04T18:34:05.794Z,3.80
2023-03-04T18:36:33.454Z,3.45
2023-03-04T18:39:00.216Z,5.05
2023-03-04T18:41:27.870Z,6.07
2023-03-04T18:43:54.892Z,7.88
2023-03-04T18:46:27.900Z,7.75
2023-03-04T18:49:01.957Z,7.93
2023-03-04T18:51:29.235Z,7.15
2023-03-04T18:53:56.050Z,6.82
2023-03-04T18:56:38.126Z,7.15
2023-03-04T18:59:24.682Z,7.07
2023-03-04T19:01:52.890Z,7.30
2023-03-04T19:04:23.053Z,7.60
2023-03-04T19:06:49.984Z,7.85
2023-03-04T19:09:16.748Z,8.18
2023-03-04T19:11:43.635Z,8.48
2023-03-04T19:14:11.711Z,7.22
2023-03-04T19:16:39.813Z,10.20
2023-03-04T19:19:06.688Z,9.10
2023-03-04T19:21:38.145Z,9.50
2023-03-04T19:24:05.566Z,9.75
2023-03-04T19:26:32.345Z,9.35
2023-03-04T19:28:59.061Z,8.45
2023-03-04T19:31:25.858Z,8.48
2023-03-04T19:33:52.592Z,7.53
2023-03-04T19:36:19.301Z,8.20
2023-03-04T19:38:45.958Z,7.57
2023-03-04T19:41:15.048Z,7.18
2023-03-04T19:43:42.109Z,7.88
2023-03-04T19:46:11.015Z,5.60
2023-03-04T19:48:39.509Z,5.53
2023-03-04T19:51:35.966Z,5.32
2023-03-04T19:54:03.438Z,5.90
2023-03-04T19:56:30.493Z,4.53
2023-03-04T19:58:57.753Z,3.60
2023-03-04T20:01:30.132Z,3.47
2023-03-04T20:03:59.315Z,3.20
2023-03-04T20:06:27.186Z,3.35
2023-03-04T20:08:57.722Z,3.30
2023-03-04T20:11:25.360Z,3.30
2023-03-04T20:13:51.996Z,2.78
2023-03-04T20:16:18.791Z,3.08
2023-03-04T20:18:45.743Z,2.08
2023-03-04T20:21:12.976Z,2.90
2023-03-04T20:23:39.603Z,2.67
2023-03-04T20:26:06.397Z,2.47
2023-03-04T20:28:33.648Z,2.70
2023-03-04T20:31:31.649Z,2.83
2023-03-04T20:33:59.806Z,2.72
2023-03-04T20:36:28.572Z,2.85
2023-03-04T20:39:01.983Z,1.80
2023-03-04T20:41:30.887Z,1.77
2023-03-04T20:43:57.609Z,1.40
2023-03-04T20:46:28.971Z,1.60
2023-03-04T20:48:57.695Z,1.33
2023-03-04T20:51:26.228Z,1.55
2023-03-04T20:53:55.314Z,1.20
2023-03-04T20:56:23.181Z,1.30
2023-03-04T20:58:50.871Z,1.73
2023-03-04T21:01:17.937Z,1.63
2023-03-04T21:03:45.571Z,1.30
2023-03-04T21:06:15.741Z,1.98
2023-03-04T21:08:43.912Z,1.83
2023-03-04T21:11:12.489Z,2.13
2023-03-04T21:13:41.274Z,1.40
2023-03-04T21:16:16.644Z,1.52
2023-03-04T21:18:44.226Z,0.70
2023-03-04T21:21:11.984Z,1.00
2023-03-04T21:23:39.020Z,0.60
2023-03-04T21:26:06.351Z,0.40
2023-03-04T21:28:33.442Z,0.43
2023-03-04T21:31:00.819Z,0.30
2023-03-04T21:33:33.505Z,0.22
2023-03-04T21:36:00.639Z,0.30
2023-03-04T21:38:27.584Z,0.22
2023-03-04T21:40:54.320Z,0.40
2023-03-04T21:43:23.483Z,0.43
2023-03-04T21:45:54.992Z,0.40
2023-03-04T21:48:22.883Z,0.50
2023-03-04T21:50:50.014Z,0.30
2023-03-04T21:53:21.631Z,0.43
2023-03-04T21:55:49.993Z,0.38
2023-03-04T21:58:17.191Z,0.50
2023-03-04T22:00:44.485Z,0.55
2023-03-04T22:03:11.270Z,0.52
2023-03-04T22:05:44.796Z,0.60
2023-03-04T22:08:12.839Z,0.60
2023-03-04T22:10:45.110Z,0.50
2023-03-04T22:13:14.317Z,0.47
2023-03-04T22:15:43.189Z,1.15
2023-03-04T22:18:13.782Z,0.60
2023-03-04T22:20:44.015Z,0.82
2023-03-04T22:23:11.322Z,0.75
2023-03-04T22:25:40.193Z,1.27
2023-03-04T22:28:08.133Z,0.90
2023-03-04T22:30:36.041Z,0.82
2023-03-04T22:33:04.644Z,1.00
2023-03-04T22:35:31.951Z,0.77
2023-03-04T22:37:58.794Z,1.63
2023-03-04T22:40:25.695Z,1.35
2023-03-04T22:42:52.674Z,0.73
2023-03-04T22:45:19.714Z,1.27
2023-03-04T22:47:49.703Z,1.30
2023-03-04T22:50:17.296Z,0.85
2023-03-04T22:52:44.541Z,0.88
2023-03-04T22:55:12.474Z,0.88
2023-03-04T22:57:39.477Z,0.60
2023-03-04T23:00:32.125Z,0.68
2023-03-04T23:02:59.364Z,1.15
2023-03-04T23:05:26.801Z,0.70
2023-03-04T23:07:54.312Z,0.70
2023-03-04T23:10:24.338Z,0.50
2023-03-04T23:12:52.567Z,0.75
2023-03-04T23:15:19.782Z,0.93
2023-03-04T23:17:47.088Z,0.60
2023-03-04T23:20:18.265Z,0.90
2023-03-04T23:22:46.088Z,0.63
2023-03-04T23:25:13.802Z,0.57
2023-03-04T23:27:41.317Z,0.75
2023-03-04T23:30:13.821Z,1.00
2023-03-04T23:32:41.025Z,0.90
2023-03-04T23:35:07.992Z,0.60
2023-03-04T23:37:34.692Z,0.50
2023-03-04T23:40:01.633Z,0.70
2023-03-04T23:42:28.753Z,0.38
2023-03-04T23:44:55.945Z,0.75
2023-03-04T23:47:22.701Z,0.68
2023-03-04T23:49:50.615Z,1.13
2023-03-04T23:52:17.379Z,0.70
2023-03-04T23:54:44.086Z,0.93
2023-03-04T23:57:10.814Z,0.52
2023-03-04T23:59:38.668Z,0.65
